Terminal Aerodrome Forecast
Issued by NWS

Home | Current Version | Previous Version | Text Only | Print | Product List | Glossary On
Versions: 1 2 3 4 5 6 7 8 9 10 11 12 13 14
000
FTUS43 KAPX 201120
TAFPLN
TAF
KPLN 201120Z 2012/2112 21005KT P6SM FEW250 WS010/24032KT
     FM201500 21010G18KT P6SM FEW250
     FM201800 22012G22KT P6SM FEW250
     FM210100 21006KT P6SM FEW250 WS013/23036KT=

USA.gov is the U.S. government's official web portal to all federal, state and local government web resources and services.